Time;durP1;ratioP1;P1;durP2;ratioP2;P2;SDS_P1;SDS_P2;PMS_P1;PMS_P2;Temp;Humidity;BMP_temperature;BMP_pressure;BME280_temperature;BME280_humidity;BME280_pressure;Samples;Min_cycle;Max_cycle;Signal;HPM_P1;HPM_P2
2023/09/14 00:00:52;;;;;;;4.97;1.58;;;12.20;90.40;;;;;;5033515;28;20060;-76
2023/09/14 00:03:18;;;;;;;6.18;2.10;;;12.20;90.30;;;;;;5035890;28;20164;-76
2023/09/14 00:05:47;;;;;;;4.15;1.70;;;12.20;90.20;;;;;;5036826;28;20497;-76
2023/09/14 00:08:13;;;;;;;4.13;1.95;;;12.20;90.10;;;;;;5036507;28;20076;-76
2023/09/14 00:10:39;;;;;;;6.25;1.90;;;12.20;90.10;;;;;;5052314;28;20079;-74
2023/09/14 00:13:05;;;;;;;5.20;1.90;;;12.20;90.00;;;;;;5047351;28;20055;-75
2023/09/14 00:15:32;;;;;;;4.07;1.80;;;12.20;90.00;;;;;;5051509;28;20036;-76
2023/09/14 00:18:00;;;;;;;3.63;1.60;;;12.20;90.00;;;;;;5071032;28;20048;-76
2023/09/14 00:20:30;;;;;;;7.63;2.00;;;12.20;90.10;;;;;;5050395;28;20372;-76
2023/09/14 00:22:59;;;;;;;4.78;1.77;;;12.20;90.10;;;;;;5048215;28;20520;-76
2023/09/14 00:25:25;;;;;;;5.82;1.95;;;12.10;90.10;;;;;;5026917;28;20091;-76
2023/09/14 00:27:52;;;;;;;4.60;1.60;;;12.10;90.10;;;;;;5035179;28;20505;-76
2023/09/14 00:30:21;;;;;;;2.70;1.45;;;12.10;90.10;;;;;;5068592;28;20173;-76
2023/09/14 00:32:49;;;;;;;6.78;1.95;;;12.00;90.10;;;;;;5032334;28;20051;-76
2023/09/14 00:35:15;;;;;;;5.53;1.80;;;12.00;90.00;;;;;;5052518;28;20048;-76
2023/09/14 00:37:42;;;;;;;8.02;2.05;;;12.00;90.00;;;;;;5031177;28;20056;-76
2023/09/14 00:40:11;;;;;;;4.43;1.70;;;12.00;90.00;;;;;;5065443;28;20044;-76
2023/09/14 00:42:41;;;;;;;6.05;1.95;;;12.00;90.00;;;;;;5048356;28;20035;-76
2023/09/14 00:45:15;;;;;;;2.72;1.55;;;12.00;90.00;;;;;;5046029;28;20127;-76
2023/09/14 00:47:45;;;;;;;3.35;1.80;;;12.00;90.10;;;;;;5026338;28;20056;-75
2023/09/14 00:50:15;;;;;;;3.95;1.88;;;12.00;90.10;;;;;;5053265;28;20132;-76
2023/09/14 00:52:41;;;;;;;6.22;2.00;;;12.00;90.10;;;;;;5015206;28;20045;-76
2023/09/14 00:55:08;;;;;;;4.90;1.48;;;11.90;90.10;;;;;;5028408;28;20054;-75
2023/09/14 00:57:35;;;;;;;3.92;1.50;;;11.90;90.20;;;;;;5051393;28;20410;-76
2023/09/14 01:00:05;;;;;;;4.05;1.67;;;11.90;90.30;;;;;;5046430;28;20059;-76
2023/09/14 01:02:33;;;;;;;5.57;1.88;;;11.90;90.50;;;;;;5061340;28;20059;-76
2023/09/14 01:05:00;;;;;;;4.97;1.70;;;11.80;90.60;;;;;;5048446;28;20072;-76
2023/09/14 01:07:27;;;;;;;4.72;1.88;;;11.80;90.70;;;;;;5065042;28;20044;-76
2023/09/14 01:09:59;;;;;;;4.72;2.00;;;11.70;90.70;;;;;;5031656;28;20470;-76
2023/09/14 01:12:25;;;;;;;3.20;1.50;;;11.70;90.80;;;;;;5056039;28;20049;-76
2023/09/14 01:15:19;;;;;;;3.90;1.95;;;11.70;90.80;;;;;;5068507;28;20066;-76
2023/09/14 01:18:27;;;;;;;4.20;1.77;;;11.70;90.90;;;;;;5018940;28;20065;-77
2023/09/14 01:20:55;;;;;;;6.05;2.40;;;11.60;90.80;;;;;;5036216;28;20345;-77
2023/09/14 01:23:43;;;;;;;4.55;1.98;;;11.50;90.80;;;;;;5051891;28;20072;-75
2023/09/14 01:26:10;;;;;;;4.55;2.10;;;11.50;90.80;;;;;;5066989;28;20044;-76
2023/09/14 01:28:38;;;;;;;4.75;2.08;;;11.40;91.00;;;;;;5063581;28;20047;-76
2023/09/14 01:31:04;;;;;;;5.05;1.98;;;11.40;91.40;;;;;;5032895;28;20040;-76
2023/09/14 01:33:31;;;;;;;4.82;2.13;;;11.30;91.30;;;;;;5053184;28;20045;-76
2023/09/14 01:36:10;;;;;;;4.35;1.95;;;11.30;91.50;;;;;;5049568;28;20093;-76
2023/09/14 01:38:37;;;;;;;4.43;1.88;;;11.20;91.60;;;;;;5045803;28;20633;-76
2023/09/14 01:41:03;;;;;;;3.50;2.08;;;11.20;91.80;;;;;;5028007;28;20050;-76
2023/09/14 01:43:31;;;;;;;5.72;2.22;;;11.20;91.90;;;;;;5008212;28;20052;-76
2023/09/14 01:45:56;;;;;;;3.30;1.88;;;11.10;92.00;;;;;;5064050;28;20090;-76
2023/09/14 01:48:23;;;;;;;5.18;2.20;;;11.10;92.10;;;;;;5065557;28;20492;-76
2023/09/14 01:50:49;;;;;;;4.30;1.98;;;11.10;92.20;;;;;;5044830;28;20403;-76
2023/09/14 01:53:15;;;;;;;4.97;1.98;;;10.80;92.20;;;;;;5043874;28;20059;-77
2023/09/14 01:55:42;;;;;;;4.97;2.10;;;11.10;92.30;;;;;;5050323;28;20044;-76
2023/09/14 01:58:09;;;;;;;5.07;2.17;;;11.10;92.30;;;;;;5065868;28;20040;-76
2023/09/14 02:00:35;;;;;;;4.68;2.00;;;11.10;92.30;;;;;;5046125;28;20044;-76
2023/09/14 02:03:00;;;;;;;4.18;1.92;;;11.10;92.40;;;;;;5045809;28;20943;-76
2023/09/14 02:05:26;;;;;;;5.30;2.17;;;11.10;92.40;;;;;;5065919;28;20084;-76
2023/09/14 02:07:52;;;;;;;4.80;1.80;;;11.10;92.40;;;;;;5029601;28;20099;-76
2023/09/14 02:10:19;;;;;;;4.72;2.10;;;11.10;92.40;;;;;;5060417;28;20168;-76
2023/09/14 02:12:45;;;;;;;3.88;1.70;;;11.10;92.40;;;;;;5011294;28;20365;-76
2023/09/14 02:15:11;;;;;;;3.33;1.67;;;11.10;92.40;;;;;;5030242;28;20046;-76
2023/09/14 02:17:36;;;;;;;4.93;1.67;;;11.10;92.50;;;;;;5051197;28;20491;-76
2023/09/14 02:20:07;;;;;;;5.70;2.10;;;11.10;92.50;;;;;;5048409;28;20437;-76
2023/09/14 02:22:34;;;;;;;3.28;1.75;;;11.10;92.50;;;;;;5032484;28;20049;-75
2023/09/14 02:25:00;;;;;;;3.83;1.73;;;11.00;92.50;;;;;;5044605;28;20051;-75
2023/09/14 02:27:26;;;;;;;4.90;1.70;;;11.00;92.50;;;;;;5030291;28;20039;-75
2023/09/14 02:29:55;;;;;;;3.58;1.73;;;11.00;92.50;;;;;;5023224;28;20236;-75
2023/09/14 02:32:21;;;;;;;6.95;1.90;;;11.00;92.60;;;;;;5046266;28;20387;-75
2023/09/14 02:34:48;;;;;;;3.95;1.63;;;11.00;92.70;;;;;;5020448;28;20060;-75
2023/09/14 02:37:14;;;;;;;3.78;1.67;;;10.90;92.70;;;;;;5064881;28;20048;-75
2023/09/14 02:39:40;;;;;;;3.75;1.52;;;10.90;92.70;;;;;;5031937;28;20059;-75
2023/09/14 02:42:06;;;;;;;7.57;2.08;;;10.90;92.80;;;;;;5013815;28;20441;-75
2023/09/14 02:44:33;;;;;;;4.80;1.60;;;10.90;92.80;;;;;;5047302;28;20131;-75
2023/09/14 02:46:58;;;;;;;5.20;1.90;;;10.20;92.70;;;;;;5025992;28;20044;-75
2023/09/14 02:49:24;;;;;;;6.28;1.95;;;10.90;93.00;;;;;;5050960;28;20148;-75
2023/09/14 02:51:51;;;;;;;4.72;1.75;;;10.90;93.00;;;;;;5018806;28;20134;-75
2023/09/14 02:54:18;;;;;;;5.50;2.25;;;10.90;93.00;;;;;;5048301;28;20575;-75
2023/09/14 02:56:44;;;;;;;3.95;1.60;;;10.90;93.10;;;;;;5046808;28;20097;-75
2023/09/14 02:59:16;;;;;;;3.75;1.88;;;11.10;93.10;;;;;;5064051;28;20040;-75
2023/09/14 03:01:44;;;;;;;5.95;2.22;;;10.90;93.20;;;;;;5012034;28;20064;-75
2023/09/14 03:04:10;;;;;;;4.20;2.45;;;10.90;93.30;;;;;;5018388;28;20048;-75
2023/09/14 03:06:35;;;;;;;5.07;1.90;;;10.90;93.30;;;;;;5031364;28;20389;-76
2023/09/14 03:09:01;;;;;;;5.78;2.20;;;11.00;93.50;;;;;;5045566;28;20047;-78
2023/09/14 03:11:27;;;;;;;4.60;2.20;;;10.90;93.40;;;;;;5034523;28;21401;-78
2023/09/14 03:13:54;;;;;;;5.50;2.17;;;10.90;93.50;;;;;;5045942;28;20087;-75
2023/09/14 03:16:20;;;;;;;5.35;2.13;;;10.90;93.60;;;;;;5043470;28;20048;-76
2023/09/14 03:18:46;;;;;;;6.50;2.20;;;10.90;93.70;;;;;;5016721;28;20048;-75
2023/09/14 03:21:26;;;;;;;2.90;2.20;;;10.90;93.70;;;;;;5052667;28;20047;-76
2023/09/14 03:23:54;;;;;;;5.72;2.30;;;10.80;93.90;;;;;;5047348;28;20132;-77
2023/09/14 03:26:19;;;;;;;5.10;2.15;;;10.80;93.90;;;;;;5067029;28;20049;-77
2023/09/14 03:28:49;;;;;;;5.45;2.22;;;10.80;94.00;;;;;;5049719;28;20052;-76
2023/09/14 03:31:15;;;;;;;3.88;2.00;;;10.80;94.20;;;;;;5049165;28;20612;-74
2023/09/14 03:33:41;;;;;;;4.35;2.10;;;10.80;94.20;;;;;;5032324;28;20040;-75
2023/09/14 03:36:06;;;;;;;7.20;2.63;;;10.70;94.20;;;;;;5031431;28;20080;-75
2023/09/14 03:38:32;;;;;;;5.82;2.28;;;10.70;94.30;;;;;;5032000;28;20511;-76
2023/09/14 03:40:58;;;;;;;9.43;2.45;;;10.70;94.40;;;;;;5016642;28;20055;-76
2023/09/14 03:43:24;;;;;;;7.40;2.78;;;10.70;94.50;;;;;;5028869;28;20044;-75
2023/09/14 03:45:50;;;;;;;4.05;2.42;;;10.70;94.60;;;;;;5047802;28;20049;-75
2023/09/14 03:48:15;;;;;;;6.15;2.45;;;10.60;94.80;;;;;;5051525;28;20544;-75
2023/09/14 03:50:42;;;;;;;5.05;2.50;;;10.60;94.80;;;;;;5031100;28;20055;-76
2023/09/14 03:53:08;;;;;;;6.07;2.75;;;10.60;95.00;;;;;;5051427;28;20644;-76
2023/09/14 03:55:34;;;;;;;9.05;2.88;;;10.60;95.00;;;;;;5054539;28;20130;-76
2023/09/14 03:58:00;;;;;;;6.90;2.88;;;10.60;95.10;;;;;;5058328;28;20131;-76
2023/09/14 04:00:26;;;;;;;7.72;2.53;;;10.60;95.20;;;;;;5035273;28;20055;-76
2023/09/14 04:02:52;;;;;;;7.00;2.42;;;10.60;95.30;;;;;;5008253;28;20492;-75
2023/09/14 04:05:18;;;;;;;7.03;2.30;;;10.60;95.40;;;;;;5045963;28;20044;-76
2023/09/14 04:07:44;;;;;;;5.47;2.30;;;10.60;95.50;;;;;;5048587;28;20155;-76
2023/09/14 04:10:11;;;;;;;7.00;3.00;;;10.60;95.60;;;;;;5049090;28;20151;-75
2023/09/14 04:12:38;;;;;;;5.03;2.20;;;10.60;95.60;;;;;;5031396;28;20168;-76
2023/09/14 04:15:04;;;;;;;4.78;2.50;;;10.60;95.60;;;;;;5034725;28;20131;-76
2023/09/14 04:17:30;;;;;;;7.97;2.20;;;10.60;95.70;;;;;;5049355;28;20045;-76
2023/09/14 04:19:56;;;;;;;5.20;2.25;;;10.60;95.70;;;;;;5049720;28;20047;-76
2023/09/14 04:22:22;;;;;;;6.13;2.60;;;10.60;95.80;;;;;;5031201;28;20390;-76
2023/09/14 04:24:49;;;;;;;5.43;2.30;;;10.60;95.80;;;;;;5032766;28;20048;-75
2023/09/14 04:27:15;;;;;;;5.43;2.25;;;10.60;95.80;;;;;;5052151;28;20041;-76
2023/09/14 04:29:41;;;;;;;5.53;2.40;;;10.60;95.90;;;;;;5016998;28;20111;-76
2023/09/14 04:32:07;;;;;;;4.65;2.45;;;10.60;95.90;;;;;;5050947;28;20078;-77
2023/09/14 04:34:36;;;;;;;4.40;2.42;;;10.50;95.90;;;;;;5033048;28;20044;-76
2023/09/14 04:37:03;;;;;;;5.00;2.40;;;10.50;96.00;;;;;;5021943;28;20045;-76
2023/09/14 04:39:29;;;;;;;5.05;2.65;;;10.50;96.10;;;;;;5032889;28;20221;-76
2023/09/14 04:41:55;;;;;;;5.40;2.30;;;10.50;96.10;;;;;;5025092;28;20791;-76
2023/09/14 04:44:20;;;;;;;6.75;2.35;;;10.50;96.20;;;;;;5069729;28;20140;-76
2023/09/14 04:46:46;;;;;;;5.22;2.60;;;10.50;96.30;;;;;;5053188;28;20041;-76
2023/09/14 04:49:15;;;;;;;4.95;2.45;;;10.40;96.30;;;;;;5043673;28;20044;-76
2023/09/14 04:51:41;;;;;;;5.68;2.08;;;10.40;96.40;;;;;;5050613;28;20094;-76
2023/09/14 04:54:06;;;;;;;4.00;2.22;;;10.40;96.40;;;;;;5067195;28;20060;-76
2023/09/14 04:56:32;;;;;;;5.30;2.35;;;10.40;96.40;;;;;;5056955;28;20045;-76
2023/09/14 04:58:58;;;;;;;5.93;2.40;;;10.40;96.50;;;;;;5064691;28;20071;-76
2023/09/14 05:01:24;;;;;;;3.95;2.30;;;10.40;96.50;;;;;;5031264;28;20505;-76
2023/09/14 05:03:49;;;;;;;4.85;2.53;;;10.40;96.50;;;;;;5046509;28;20041;-75
2023/09/14 05:06:21;;;;;;;6.60;2.60;;;10.40;96.60;;;;;;5032916;28;20525;-75
2023/09/14 05:08:47;;;;;;;5.50;2.47;;;10.40;96.60;;;;;;5046996;28;20072;-76
2023/09/14 05:11:12;;;;;;;4.63;2.50;;;10.30;96.60;;;;;;5031336;28;20048;-76
2023/09/14 05:13:38;;;;;;;6.70;2.60;;;10.40;96.70;;;;;;5035981;28;20442;-77
2023/09/14 05:16:04;;;;;;;5.45;2.28;;;10.30;96.60;;;;;;5062735;28;20178;-76
2023/09/14 05:18:30;;;;;;;4.63;2.50;;;10.30;96.70;;;;;;5032724;28;20048;-75
2023/09/14 05:20:56;;;;;;;4.50;2.45;;;10.30;96.70;;;;;;5036722;28;20080;-75
2023/09/14 05:23:21;;;;;;;4.15;2.10;;;10.30;96.80;;;;;;5065853;28;20044;-77
2023/09/14 05:25:47;;;;;;;5.00;2.53;;;10.30;96.80;;;;;;5039795;28;20044;-76
2023/09/14 05:28:14;;;;;;;8.40;2.67;;;10.30;96.80;;;;;;5051168;28;20040;-76
2023/09/14 05:30:43;;;;;;;4.88;2.45;;;10.40;96.80;;;;;;5028412;28;20073;-76
2023/09/14 05:33:09;;;;;;;4.97;2.40;;;10.40;96.80;;;;;;5053027;28;20048;-75
2023/09/14 05:35:36;;;;;;;3.75;2.25;;;10.40;96.80;;;;;;5034168;28;20052;-76
2023/09/14 05:38:01;;;;;;;3.95;2.50;;;10.40;96.90;;;;;;5053315;28;20119;-76
2023/09/14 05:40:27;;;;;;;7.40;2.70;;;10.40;96.90;;;;;;5068137;28;20092;-77
2023/09/14 05:42:53;;;;;;;6.68;2.60;;;10.50;96.90;;;;;;5036508;28;20169;-76
2023/09/14 05:45:19;;;;;;;4.35;2.20;;;10.50;96.90;;;;;;5064527;28;20044;-76
2023/09/14 05:47:45;;;;;;;7.05;2.70;;;10.50;96.80;;;;;;5051745;28;20051;-76
2023/09/14 05:50:12;;;;;;;5.72;2.50;;;10.60;96.80;;;;;;5048973;28;20267;-76
2023/09/14 05:52:37;;;;;;;4.80;2.30;;;10.70;96.80;;;;;;4996647;28;20063;-76
2023/09/14 05:55:03;;;;;;;5.38;2.70;;;10.70;96.80;;;;;;5055773;28;20044;-75
2023/09/14 05:57:31;;;;;;;4.85;2.30;;;10.70;96.80;;;;;;5052442;28;20051;-75
2023/09/14 05:59:58;;;;;;;6.97;2.20;;;10.80;96.80;;;;;;5047709;28;20703;-75
2023/09/14 06:02:24;;;;;;;7.00;2.15;;;10.80;96.70;;;;;;5051199;28;20048;-76
2023/09/14 06:04:51;;;;;;;6.20;2.60;;;10.90;96.70;;;;;;5063710;28;20044;-76
2023/09/14 06:07:17;;;;;;;7.03;2.50;;;11.00;96.70;;;;;;5042969;28;20052;-76
2023/09/14 06:09:43;;;;;;;5.47;2.40;;;11.00;96.70;;;;;;5048216;28;20051;-75
2023/09/14 06:12:08;;;;;;;8.63;2.30;;;11.10;96.70;;;;;;5054462;28;20048;-76
2023/09/14 06:14:37;;;;;;;8.25;2.67;;;11.20;96.70;;;;;;5071307;28;20107;-76
2023/09/14 06:17:03;;;;;;;4.93;2.30;;;11.30;96.70;;;;;;5054602;28;20053;-77
2023/09/14 06:19:29;;;;;;;5.32;2.55;;;11.30;96.70;;;;;;5033514;28;20523;-76
2023/09/14 06:21:55;;;;;;;6.35;2.38;;;11.40;96.80;;;;;;5052022;28;20518;-76
2023/09/14 06:24:20;;;;;;;5.72;2.70;;;11.50;96.80;;;;;;5035248;28;20059;-76
2023/09/14 06:26:50;;;;;;;5.07;2.40;;;11.50;96.80;;;;;;5068902;28;20921;-76
2023/09/14 06:29:16;;;;;;;4.25;2.63;;;11.60;96.80;;;;;;5051093;28;20066;-76
2023/09/14 06:31:42;;;;;;;5.38;2.58;;;11.70;96.90;;;;;;5051035;28;20060;-76
2023/09/14 06:34:08;;;;;;;4.85;2.50;;;11.80;96.90;;;;;;5036308;28;20411;-77
2023/09/14 06:36:34;;;;;;;5.30;2.50;;;11.80;97.00;;;;;;5032057;28;20052;-76
2023/09/14 06:39:01;;;;;;;5.80;2.75;;;11.90;97.00;;;;;;5047793;28;20048;-77
2023/09/14 06:41:26;;;;;;;5.97;2.60;;;12.00;97.10;;;;;;5049679;28;20044;-76
2023/09/14 06:43:52;;;;;;;6.75;2.90;;;12.10;97.00;;;;;;5050714;28;20190;-76
2023/09/14 06:46:18;;;;;;;6.20;2.70;;;12.20;97.10;;;;;;5051356;28;20052;-76
2023/09/14 06:48:44;;;;;;;4.43;2.50;;;12.40;97.00;;;;;;5040451;28;20063;-76
2023/09/14 06:51:10;;;;;;;6.40;2.13;;;12.50;96.90;;;;;;5052717;28;20064;-76
2023/09/14 06:53:36;;;;;;;4.90;2.17;;;12.60;96.80;;;;;;5052123;28;20048;-74
2023/09/14 06:56:10;;;;;;;6.45;2.30;;;12.80;96.80;;;;;;5043521;28;20055;-77
2023/09/14 06:58:37;;;;;;;6.50;2.17;;;12.90;96.70;;;;;;5015285;28;20048;-75
2023/09/14 07:01:05;;;;;;;5.78;2.55;;;13.00;96.70;;;;;;5046391;28;20132;-76
2023/09/14 07:03:32;;;;;;;5.88;2.10;;;13.10;96.70;;;;;;5031318;28;20047;-76
2023/09/14 07:05:58;;;;;;;6.97;2.60;;;13.10;96.70;;;;;;5046704;28;20313;-76
2023/09/14 07:08:24;;;;;;;5.82;1.98;;;13.20;96.80;;;;;;5065311;28;20041;-76
2023/09/14 07:10:50;;;;;;;5.68;1.98;;;13.20;96.90;;;;;;5049172;28;20056;-76
2023/09/14 07:13:17;;;;;;;8.10;2.08;;;13.30;96.90;;;;;;5031747;28;20097;-77
2023/09/14 07:18:49;;;;;;;6.18;1.85;;;13.40;97.00;;;;;;5030411;28;20048;-76
2023/09/14 07:21:15;;;;;;;7.50;2.30;;;13.40;97.00;;;;;;5046567;28;20054;-76
2023/09/14 07:23:42;;;;;;;5.10;1.73;;;13.50;97.00;;;;;;5046771;28;20060;-75
2023/09/14 07:26:07;;;;;;;4.28;2.17;;;13.50;97.00;;;;;;5050497;28;20039;-75
2023/09/14 07:28:33;;;;;;;9.85;3.97;;;13.60;96.90;;;;;;5047283;28;20518;-76
2023/09/14 07:31:04;;;;;;;5.82;2.00;;;13.70;97.00;;;;;;5035006;28;20049;-77
2023/09/14 07:33:30;;;;;;;3.30;1.70;;;13.70;97.00;;;;;;5035642;28;21271;-76
2023/09/14 07:35:56;;;;;;;6.80;1.90;;;13.80;97.10;;;;;;5050581;28;20048;-76
2023/09/14 07:38:21;;;;;;;5.63;1.60;;;13.90;96.90;;;;;;5064137;28;20045;-75
2023/09/14 07:40:48;;;;;;;13.07;2.33;;;14.00;96.90;;;;;;5013624;28;20043;-76
2023/09/14 07:43:14;;;;;;;5.68;1.80;;;14.00;96.80;;;;;;5032215;28;20102;-76
2023/09/14 07:45:40;;;;;;;6.57;1.90;;;14.10;96.80;;;;;;5023969;28;20056;-75
2023/09/14 07:48:07;;;;;;;7.15;2.00;;;14.10;96.80;;;;;;5019669;28;20266;-75
2023/09/14 07:50:39;;;;;;;5.30;2.10;;;14.30;96.90;;;;;;5044688;28;20059;-75
2023/09/14 07:53:10;;;;;;;7.32;2.10;;;14.50;96.80;;;;;;5048678;28;20056;-77
2023/09/14 07:55:37;;;;;;;6.35;1.80;;;14.70;96.50;;;;;;5036469;28;20080;-76
2023/09/14 07:58:03;;;;;;;7.20;2.00;;;15.00;96.10;;;;;;5043871;28;20486;-76
2023/09/14 08:00:29;;;;;;;7.18;2.60;;;15.30;95.70;;;;;;5048305;28;20417;-76
2023/09/14 08:02:55;;;;;;;8.30;2.17;;;15.60;95.30;;;;;;5037340;28;20129;-76
2023/09/14 08:05:21;;;;;;;4.13;1.90;;;16.00;94.70;;;;;;5051192;28;20130;-75
2023/09/14 08:07:46;;;;;;;5.95;2.20;;;16.20;94.30;;;;;;5065881;28;20076;-77
2023/09/14 08:10:12;;;;;;;4.70;1.75;;;16.40;93.90;;;;;;5035197;28;20059;-77
2023/09/14 08:12:38;;;;;;;6.00;2.20;;;16.40;93.70;;;;;;5050169;28;20224;-76
2023/09/14 08:15:08;;;;;;;5.60;1.83;;;16.50;93.60;;;;;;5063770;28;20082;-77
2023/09/14 08:17:33;;;;;;;10.75;2.72;;;16.60;93.60;;;;;;5033126;28;20067;-76
2023/09/14 08:20:00;;;;;;;11.65;2.78;;;16.60;93.50;;;;;;5042136;28;20044;-75
2023/09/14 08:22:25;;;;;;;10.00;2.78;;;16.70;93.40;;;;;;5053471;28;20047;-76
2023/09/14 08:24:52;;;;;;;9.65;2.78;;;16.80;93.40;;;;;;5050106;28;20048;-77
2023/09/14 08:27:18;;;;;;;9.95;2.40;;;16.90;93.20;;;;;;5055263;28;20048;-76
2023/09/14 08:29:47;;;;;;;7.60;2.10;;;17.00;93.40;;;;;;5070216;28;20045;-77
2023/09/14 08:32:13;;;;;;;7.38;2.38;;;17.20;92.80;;;;;;5051016;28;20056;-76
2023/09/14 08:34:39;;;;;;;6.07;2.33;;;17.30;92.50;;;;;;5061186;28;20547;-77
2023/09/14 08:37:09;;;;;;;7.68;2.35;;;17.60;91.90;;;;;;5030892;28;20390;-76
2023/09/14 08:39:36;;;;;;;7.40;2.75;;;18.00;91.00;;;;;;5064601;28;20421;-77
2023/09/14 08:42:02;;;;;;;10.35;2.42;;;18.30;90.00;;;;;;5066140;28;20420;-77
2023/09/14 08:44:33;;;;;;;6.25;2.08;;;18.60;88.00;;;;;;5049611;28;20059;-77
2023/09/14 08:47:01;;;;;;;8.18;2.08;;;18.90;86.30;;;;;;5046118;28;20131;-77
2023/09/14 08:49:28;;;;;;;5.82;2.10;;;19.10;83.80;;;;;;5048606;28;20041;-76
2023/09/14 08:51:57;;;;;;;6.40;1.98;;;19.20;81.60;;;;;;5043332;28;20040;-75
2023/09/14 08:54:27;;;;;;;8.85;2.00;;;19.30;79.70;;;;;;5063884;28;20143;-77
2023/09/14 08:56:53;;;;;;;7.45;2.30;;;19.40;78.00;;;;;;5029830;28;20138;-77
2023/09/14 08:59:20;;;;;;;6.13;2.20;;;19.40;76.80;;;;;;5065080;28;20535;-77
2023/09/14 09:01:50;;;;;;;6.70;2.03;;;19.40;75.60;;;;;;5048715;28;20056;-77
2023/09/14 09:04:16;;;;;;;8.35;2.22;;;19.40;72.30;;;;;;5024230;28;20045;-77
2023/09/14 09:06:42;;;;;;;9.60;2.58;;;19.40;70.20;;;;;;5051040;28;20049;-75
2023/09/14 09:09:10;;;;;;;10.13;2.63;;;19.40;68.90;;;;;;5037242;28;20044;-77
2023/09/14 09:11:37;;;;;;;5.63;1.83;;;19.50;67.00;;;;;;5041751;28;20036;-77
2023/09/14 09:14:03;;;;;;;5.65;1.90;;;19.70;64.30;;;;;;5049212;28;20044;-77
2023/09/14 09:16:30;;;;;;;8.02;1.80;;;19.80;62.30;;;;;;5067742;28;20045;-77
2023/09/14 09:19:05;;;;;;;6.28;1.70;;;20.10;58.90;;;;;;5013781;28;20044;-77
2023/09/14 09:21:34;;;;;;;7.93;2.20;;;20.00;55.30;;;;;;5040998;28;20044;-77
2023/09/14 09:24:03;;;;;;;7.68;2.00;;;20.20;55.20;;;;;;5046095;28;20112;-77
2023/09/14 09:26:35;;;;;;;7.00;1.80;;;20.20;52.50;;;;;;5045780;28;20065;-77
2023/09/14 09:29:13;;;;;;;10.73;2.67;;;20.30;50.30;;;;;;5062543;28;20044;-77
2023/09/14 09:31:52;;;;;;;5.75;2.10;;;20.20;47.80;;;;;;5039136;28;20059;-77
2023/09/14 09:34:31;;;;;;;6.43;1.90;;;20.20;44.70;;;;;;5047743;28;20160;-77
2023/09/14 09:36:58;;;;;;;10.00;2.35;;;20.20;44.60;;;;;;5048249;28;20122;-77
2023/09/14 09:39:24;;;;;;;8.18;2.35;;;20.20;45.40;;;;;;5028966;28;20056;-77
2023/09/14 09:41:50;;;;;;;8.63;2.08;;;20.20;45.50;;;;;;5064260;28;20090;-78
2023/09/14 09:44:18;;;;;;;7.22;2.22;;;20.30;47.00;;;;;;5030393;28;20036;-78
2023/09/14 09:46:44;;;;;;;6.70;2.05;;;20.40;45.60;;;;;;5029874;28;20078;-77
2023/09/14 09:49:22;;;;;;;6.93;1.90;;;20.50;43.40;;;;;;5029213;28;20044;-76
2023/09/14 09:51:49;;;;;;;6.07;2.05;;;20.50;39.10;;;;;;5041711;28;20048;-77
2023/09/14 09:54:18;;;;;;;5.82;1.77;;;20.40;38.70;;;;;;5062824;28;20511;-76
2023/09/14 09:56:43;;;;;;;4.25;1.90;;;20.30;37.60;;;;;;5044521;28;20114;-77
2023/09/14 09:59:10;;;;;;;7.85;2.08;;;20.20;38.10;;;;;;5027449;28;20045;-77
2023/09/14 10:01:40;;;;;;;5.03;1.67;;;20.10;38.10;;;;;;5048335;28;20090;-77
2023/09/14 10:04:10;;;;;;;7.75;2.20;;;20.20;38.40;;;;;;5050912;28;20438;-77
2023/09/14 10:06:37;;;;;;;7.68;2.03;;;20.10;37.30;;;;;;5049510;28;20033;-77
2023/09/14 10:09:08;;;;;;;7.10;1.90;;;20.00;38.40;;;;;;5029117;28;20071;-77
2023/09/14 10:11:35;;;;;;;8.18;1.98;;;20.00;36.60;;;;;;5044570;28;20096;-77
2023/09/14 10:14:03;;;;;;;7.55;1.95;;;20.10;35.90;;;;;;5030710;28;20051;-75
2023/09/14 10:16:34;;;;;;;7.15;1.95;;;20.30;31.00;;;;;;5066809;28;20063;-77
2023/09/14 10:19:01;;;;;;;6.65;1.88;;;20.60;26.60;;;;;;5062896;28;20054;-77
2023/09/14 10:21:28;;;;;;;5.40;1.65;;;20.90;22.50;;;;;;5028322;28;20079;-77
2023/09/14 10:23:54;;;;;;;7.63;1.83;;;21.20;18.10;;;;;;5031126;28;20055;-77
2023/09/14 10:26:20;;;;;;;6.07;2.00;;;21.50;10.90;;;;;;5063879;28;20055;-76
2023/09/14 10:28:47;;;;;;;7.40;1.88;;;21.90;1.00;;;;;;5045616;28;20044;-76
2023/09/14 10:31:16;;;;;;;5.55;2.00;;;22.40;1.00;;;;;;5047038;28;20056;-76
2023/09/14 10:33:45;;;;;;;4.65;1.60;;;22.70;1.00;;;;;;5047103;28;20087;-76
2023/09/14 10:36:12;;;;;;;4.57;1.95;;;23.00;1.00;;;;;;5044835;28;20216;-76
2023/09/14 10:38:43;;;;;;;7.18;2.20;;;23.30;1.00;;;;;;5048932;28;20102;-76
2023/09/14 10:41:11;;;;;;;5.95;2.00;;;23.40;1.00;;;;;;5062751;28;20044;-76
2023/09/14 10:43:39;;;;;;;5.25;1.73;;;23.50;1.00;;;;;;5033342;28;20190;-77
2023/09/14 10:46:10;;;;;;;6.85;1.90;;;23.50;1.00;;;;;;5037936;28;20058;-74
2023/09/14 10:48:37;;;;;;;5.68;2.20;;;23.60;1.00;;;;;;5029725;28;20496;-77
2023/09/14 10:51:03;;;;;;;8.30;2.95;;;23.60;1.00;;;;;;5045495;28;20545;-77
2023/09/14 10:53:30;;;;;;;6.75;2.13;;;23.40;1.00;;;;;;5030041;28;20048;-77
2023/09/14 10:55:55;;;;;;;4.53;1.50;;;23.40;1.00;;;;;;5043110;28;20098;-76
2023/09/14 10:58:21;;;;;;;4.57;1.80;;;23.50;1.00;;;;;;5043043;28;20048;-76
2023/09/14 11:00:57;;;;;;;5.85;1.75;;;23.70;1.00;;;;;;5037456;28;20059;-77
2023/09/14 11:03:23;;;;;;;7.72;2.00;;;23.80;99.90;;;;;;5046828;28;20044;-77
2023/09/14 11:05:51;;;;;;;4.90;1.63;;;24.10;99.90;;;;;;5030700;28;20072;-77
2023/09/14 11:08:19;;;;;;;6.20;2.03;;;24.30;99.90;;;;;;5052721;28;20039;-77
2023/09/14 11:11:00;;;;;;;4.18;1.40;;;24.50;99.90;;;;;;5032037;28;20472;-77
2023/09/14 11:13:32;;;;;;;6.22;1.80;;;24.60;1.00;;;;;;5043367;28;20162;-77
2023/09/14 11:16:06;;;;;;;6.43;1.73;;;24.80;99.90;;;;;;5046570;28;20059;-77
2023/09/14 11:18:44;;;;;;;5.88;2.00;;;24.90;99.90;;;;;;5047056;28;20490;-77
2023/09/14 11:21:43;;;;;;;4.57;1.77;;;25.30;1.00;;;;;;5045701;28;20052;-77
2023/09/14 11:24:10;;;;;;;7.13;2.00;;;25.20;99.90;;;;;;5014533;28;20060;-76
2023/09/14 11:26:42;;;;;;;8.10;1.83;;;25.30;99.90;;;;;;5033841;28;20048;-77
2023/09/14 11:29:08;;;;;;;8.93;1.60;;;25.40;99.90;;;;;;5046440;28;20048;-77
2023/09/14 11:31:35;;;;;;;4.10;1.58;;;25.60;1.00;;;;;;5046403;28;20045;-77
2023/09/14 11:34:16;;;;;;;4.07;1.60;;;25.70;99.90;;;;;;5060358;28;20053;-76
2023/09/14 11:36:44;;;;;;;4.38;1.75;;;25.90;1.00;;;;;;5048580;28;20390;-78
2023/09/14 11:39:11;;;;;;;6.45;1.65;;;25.90;1.00;;;;;;5046859;28;20476;-77
2023/09/14 11:41:49;;;;;;;8.80;1.98;;;26.10;99.90;;;;;;5049677;28;20060;-77
2023/09/14 11:44:18;;;;;;;5.00;1.80;;;26.30;99.90;;;;;;5027220;28;20049;-77
2023/09/14 11:46:47;;;;;;;5.35;1.55;;;26.40;99.90;;;;;;5054299;28;20041;-77
2023/09/14 11:49:15;;;;;;;3.80;1.90;;;26.60;99.90;;;;;;5039264;28;20058;-77
2023/09/14 11:51:41;;;;;;;7.03;2.00;;;26.60;99.90;;;;;;5036238;28;20063;-77
2023/09/14 11:54:10;;;;;;;4.13;1.45;;;26.60;99.90;;;;;;5036880;28;20721;-76
2023/09/14 11:56:37;;;;;;;5.78;1.83;;;26.80;99.90;;;;;;5054415;28;20044;-77
2023/09/14 11:59:04;;;;;;;8.23;1.80;;;26.90;99.90;;;;;;5046592;28;20087;-77
2023/09/14 12:01:36;;;;;;;4.82;1.77;;;26.90;1.00;;;;;;5050704;28;20056;-76
2023/09/14 12:04:05;;;;;;;6.47;1.50;;;27.00;99.90;;;;;;5042083;28;20041;-77
2023/09/14 12:06:32;;;;;;;4.85;1.50;;;27.20;99.90;;;;;;5057098;28;20040;-76
2023/09/14 12:08:58;;;;;;;5.10;1.88;;;27.30;1.00;;;;;;5052274;28;20048;-76
2023/09/14 12:11:37;;;;;;;4.20;1.50;;;27.40;33.50;;;;;;5033768;28;20069;-77
2023/09/14 12:14:03;;;;;;;6.07;1.98;;;27.50;1.00;;;;;;5047949;28;20073;-77
2023/09/14 12:16:29;;;;;;;5.47;1.83;;;27.70;99.90;;;;;;5002701;28;20086;-76
2023/09/14 12:18:55;;;;;;;3.95;1.70;;;27.90;99.90;;;;;;5068739;28;20052;-76
2023/09/14 12:21:25;;;;;;;5.97;1.70;;;27.80;99.90;;;;;;5053944;28;20087;-77
2023/09/14 12:23:51;;;;;;;6.05;2.00;;;27.90;99.90;;;;;;5051446;28;20052;-76
2023/09/14 12:26:19;;;;;;;4.18;1.55;;;27.90;99.90;;;;;;5051324;28;20045;-77
2023/09/14 12:28:58;;;;;;;4.47;2.00;;;27.90;99.90;;;;;;5047775;28;20143;-77
2023/09/14 12:31:25;;;;;;;6.07;1.60;;;27.80;78.10;;;;;;5053252;28;20105;-77
2023/09/14 12:33:52;;;;;;;5.32;1.75;;;28.00;99.90;;;;;;5050157;28;20032;-77
2023/09/14 12:36:18;;;;;;;5.10;1.95;;;28.00;99.90;;;;;;5035843;28;20045;-76
2023/09/14 12:38:47;;;;;;;6.55;2.00;;;27.90;65.00;;;;;;5034486;28;20040;-76
2023/09/14 12:41:14;;;;;;;6.88;2.08;;;28.00;58.00;;;;;;5064503;28;20055;-77
2023/09/14 12:43:40;;;;;;;5.40;2.00;;;27.90;12.40;;;;;;5042446;28;20044;-77
2023/09/14 12:46:07;;;;;;;5.20;1.90;;;28.00;1.00;;;;;;5029339;28;20051;-76
2023/09/14 12:48:33;;;;;;;6.50;1.92;;;28.10;1.00;;;;;;5049911;28;20044;-77
2023/09/14 12:51:05;;;;;;;4.80;1.67;;;28.30;1.00;;;;;;5048967;28;20090;-76
2023/09/14 12:53:40;;;;;;;6.15;1.73;;;28.60;1.00;;;;;;5046675;28;20056;-76